createdAt,value
2022-08-30T04:00:36.425Z,0.00
2022-08-30T04:01:36.366Z,0.00
2022-08-30T04:02:36.362Z,0.00
2022-08-30T04:03:36.302Z,0.00
2022-08-30T04:04:36.316Z,0.00
2022-08-30T04:05:36.279Z,0.00
2022-08-30T04:06:36.264Z,0.00
2022-08-30T04:07:36.261Z,0.00
2022-08-30T04:08:36.242Z,0.00
2022-08-30T04:09:36.247Z,0.00
2022-08-30T04:10:36.221Z,0.00
2022-08-30T04:11:41.231Z,0.00
2022-08-30T04:12:38.388Z,0.00
2022-08-30T04:13:36.213Z,0.00
2022-08-30T04:14:36.183Z,0.00
2022-08-30T04:15:36.167Z,0.00
2022-08-30T04:16:36.242Z,0.00
2022-08-30T04:17:36.148Z,0.00
2022-08-30T04:18:36.156Z,0.00
2022-08-30T04:19:36.133Z,0.00
2022-08-30T04:20:36.132Z,0.00
2022-08-30T04:21:37.521Z,0.00
2022-08-30T04:22:42.109Z,0.00
2022-08-30T04:23:36.080Z,0.00
2022-08-30T04:24:36.074Z,0.00
2022-08-30T04:25:36.070Z,0.00
2022-08-30T04:26:36.043Z,0.00
2022-08-30T04:27:36.082Z,0.00
2022-08-30T04:28:36.022Z,0.00
2022-08-30T04:29:36.020Z,0.00
2022-08-30T04:30:36.002Z,0.00
2022-08-30T04:31:36.042Z,0.00
2022-08-30T04:32:35.980Z,0.00
2022-08-30T04:33:40.992Z,0.00
2022-08-30T04:34:35.966Z,0.00
2022-08-30T04:35:35.947Z,0.00
2022-08-30T04:36:35.937Z,0.00
2022-08-30T04:37:35.929Z,0.00
2022-08-30T04:38:35.913Z,0.00
2022-08-30T04:39:35.919Z,0.00
2022-08-30T04:40:36.028Z,0.00
2022-08-30T04:41:35.880Z,0.00
2022-08-30T04:42:35.868Z,0.00
2022-08-30T04:43:35.858Z,0.00
2022-08-30T04:44:40.878Z,0.00
2022-08-30T04:45:35.882Z,0.00
2022-08-30T04:46:35.827Z,0.00
2022-08-30T04:47:36.821Z,0.00
2022-08-30T04:48:35.806Z,0.00
2022-08-30T04:49:35.791Z,0.00
2022-08-30T04:50:35.804Z,5.62
2022-08-30T04:51:35.773Z,5.62
2022-08-30T04:52:35.759Z,5.62
2022-08-30T04:53:35.755Z,5.62
2022-08-30T04:54:35.738Z,5.62
2022-08-30T04:55:40.757Z,5.62
2022-08-30T04:56:35.717Z,5.62
2022-08-30T04:57:35.713Z,5.62
2022-08-30T04:58:35.693Z,5.62
2022-08-30T04:59:35.697Z,5.62
2022-08-30T05:00:35.713Z,5.62
2022-08-30T05:01:36.797Z,5.62
2022-08-30T05:02:36.773Z,11.25
2022-08-30T05:03:35.654Z,11.25
2022-08-30T05:04:35.626Z,11.25
2022-08-30T05:05:35.636Z,11.25
2022-08-30T05:06:40.624Z,11.25
2022-08-30T05:07:35.635Z,11.25
2022-08-30T05:08:35.621Z,11.25
2022-08-30T05:09:35.575Z,11.25
2022-08-30T05:10:35.576Z,11.25
2022-08-30T05:11:35.554Z,16.88
2022-08-30T05:12:35.553Z,16.88
2022-08-30T05:13:37.073Z,16.88
2022-08-30T05:14:35.523Z,16.88
2022-08-30T05:15:35.518Z,16.88
2022-08-30T05:16:35.525Z,16.88
2022-08-30T05:17:40.504Z,22.50
2022-08-30T05:18:35.472Z,22.50
2022-08-30T05:19:35.474Z,22.50
2022-08-30T05:20:35.465Z,22.50
2022-08-30T05:21:35.451Z,22.50
2022-08-30T05:22:35.431Z,22.50
2022-08-30T05:23:35.420Z,22.50
2022-08-30T05:24:35.407Z,22.50
2022-08-30T05:25:35.417Z,28.12
2022-08-30T05:26:35.451Z,28.12
2022-08-30T05:27:37.637Z,28.12
2022-08-30T05:28:40.391Z,28.12
2022-08-30T05:29:35.349Z,28.12
2022-08-30T05:30:35.355Z,28.12
2022-08-30T05:31:35.423Z,28.12
2022-08-30T05:32:35.318Z,28.12
2022-08-30T05:33:36.299Z,28.12
2022-08-30T05:34:35.303Z,28.12
2022-08-30T05:35:35.303Z,28.12
2022-08-30T05:36:35.279Z,33.75
2022-08-30T05:37:35.261Z,33.75
2022-08-30T05:38:35.251Z,33.75
2022-08-30T05:39:51.241Z,33.75
2022-08-30T05:40:36.299Z,33.75
2022-08-30T05:41:35.220Z,33.75
2022-08-30T05:42:35.244Z,45.00
2022-08-30T05:43:35.198Z,45.00
2022-08-30T05:44:35.186Z,50.62
2022-08-30T05:45:35.189Z,50.62
2022-08-30T05:47:35.153Z,67.50
2022-08-30T05:48:35.141Z,73.12
2022-08-30T05:49:35.135Z,73.12
2022-08-30T05:50:40.241Z,67.50
2022-08-30T05:51:35.114Z,61.88
2022-08-30T05:52:35.100Z,61.88
2022-08-30T05:53:35.095Z,61.88
2022-08-30T05:54:35.074Z,56.25
2022-08-30T05:55:35.104Z,50.62
2022-08-30T05:56:35.070Z,56.25
2022-08-30T05:57:35.055Z,61.88
2022-08-30T05:58:35.030Z,67.50
2022-08-30T05:59:35.031Z,67.50
2022-08-30T06:00:35.008Z,61.88
2022-08-30T06:01:40.068Z,61.88
2022-08-30T06:02:35.041Z,56.25
2022-08-30T06:03:34.971Z,45.00
2022-08-30T06:04:34.962Z,39.38
2022-08-30T06:05:35.015Z,39.38
2022-08-30T06:06:34.955Z,39.38
2022-08-30T06:07:34.931Z,39.38
2022-08-30T06:08:34.947Z,39.38
2022-08-30T06:09:34.906Z,39.38
2022-08-30T06:10:34.893Z,39.38
2022-08-30T06:11:34.900Z,39.38
2022-08-30T06:12:39.894Z,45.00
2022-08-30T06:13:34.889Z,39.38
2022-08-30T06:14:34.848Z,39.38
2022-08-30T06:15:34.839Z,39.38
2022-08-30T06:16:34.885Z,45.00
2022-08-30T06:17:34.828Z,45.00
2022-08-30T06:18:34.804Z,45.00
2022-08-30T06:19:34.796Z,50.62
2022-08-30T06:20:34.800Z,45.00
2022-08-30T06:21:34.787Z,50.62
2022-08-30T06:22:34.758Z,50.62
2022-08-30T06:23:39.772Z,56.25
2022-08-30T06:24:56.011Z,61.88
2022-08-30T06:25:42.190Z,67.50
2022-08-30T06:26:35.726Z,73.12
2022-08-30T06:27:34.701Z,90.00
2022-08-30T06:28:34.694Z,101.25
2022-08-30T06:29:34.679Z,106.88
2022-08-30T06:30:34.680Z,123.75
2022-08-30T06:31:34.736Z,123.75
2022-08-30T06:32:34.654Z,106.88
2022-08-30T06:33:34.634Z,90.00
2022-08-30T06:34:39.660Z,67.50
2022-08-30T06:35:38.282Z,67.50
2022-08-30T06:36:35.612Z,73.12
2022-08-30T06:37:34.589Z,90.00
2022-08-30T06:38:34.579Z,90.00
2022-08-30T06:39:34.566Z,101.25
2022-08-30T06:40:34.631Z,112.50
2022-08-30T06:41:34.555Z,129.38
2022-08-30T06:42:34.539Z,146.25
2022-08-30T06:43:34.521Z,151.88
2022-08-30T06:44:34.524Z,135.00
2022-08-30T06:45:39.537Z,123.75
2022-08-30T06:46:34.567Z,123.75
2022-08-30T06:47:34.478Z,129.38
2022-08-30T06:48:34.467Z,129.38
2022-08-30T06:49:34.468Z,90.00
2022-08-30T06:50:34.449Z,78.75
2022-08-30T06:51:34.466Z,73.12
2022-08-30T06:52:34.427Z,73.12
2022-08-30T06:53:34.413Z,73.12
2022-08-30T06:54:34.405Z,73.12
2022-08-30T06:55:34.395Z,78.75
2022-08-30T06:56:40.242Z,90.00
2022-08-30T06:57:34.392Z,95.62
2022-08-30T06:58:34.360Z,95.62
2022-08-30T06:59:34.349Z,95.62
2022-08-30T07:00:34.338Z,95.62
2022-08-30T07:01:34.370Z,90.00
2022-08-30T07:02:34.357Z,95.62
2022-08-30T07:03:34.301Z,101.25
2022-08-30T07:04:34.290Z,90.00
2022-08-30T07:05:34.282Z,95.62
2022-08-30T07:06:34.278Z,95.62
2022-08-30T07:07:39.284Z,90.00
2022-08-30T07:08:34.245Z,90.00
2022-08-30T07:09:34.261Z,101.25
2022-08-30T07:10:34.225Z,135.00
2022-08-30T07:11:34.221Z,129.38
2022-08-30T07:12:34.238Z,106.88
2022-08-30T07:13:34.203Z,90.00
2022-08-30T07:14:34.184Z,84.38
2022-08-30T07:15:34.176Z,95.62
2022-08-30T07:16:34.168Z,90.00
2022-08-30T07:17:34.979Z,84.38
2022-08-30T07:18:39.156Z,84.38
2022-08-30T07:19:34.122Z,78.75
2022-08-30T07:20:40.006Z,95.62
2022-08-30T07:21:35.111Z,101.25
2022-08-30T07:22:34.099Z,174.38
2022-08-30T07:23:34.081Z,180.00
2022-08-30T07:24:34.070Z,163.12
2022-08-30T07:25:34.117Z,123.75
2022-08-30T07:26:34.060Z,106.88
2022-08-30T07:27:34.040Z,101.25
2022-08-30T07:28:34.027Z,101.25
2022-08-30T07:29:39.033Z,95.62
2022-08-30T07:30:34.001Z,95.62
2022-08-30T07:31:34.006Z,101.25
2022-08-30T07:32:33.980Z,101.25
2022-08-30T07:33:33.976Z,101.25
2022-08-30T07:34:34.032Z,101.25
2022-08-30T07:35:33.950Z,106.88
2022-08-30T07:36:33.970Z,106.88
2022-08-30T07:37:33.924Z,106.88
2022-08-30T07:38:33.916Z,101.25
2022-08-30T07:39:39.195Z,106.88
2022-08-30T07:40:39.962Z,106.88
2022-08-30T07:41:33.897Z,112.50
2022-08-30T07:42:33.880Z,106.88
2022-08-30T07:43:33.857Z,112.50
2022-08-30T07:44:33.850Z,112.50
2022-08-30T07:45:33.854Z,112.50
2022-08-30T07:46:33.916Z,112.50
2022-08-30T07:47:33.844Z,112.50
2022-08-30T07:48:33.805Z,112.50
2022-08-30T07:49:33.797Z,112.50
2022-08-30T07:50:33.786Z,112.50
2022-08-30T07:51:38.823Z,112.50
2022-08-30T07:52:33.797Z,106.88
2022-08-30T07:53:33.748Z,106.88
2022-08-30T07:54:33.742Z,101.25
2022-08-30T07:55:33.725Z,101.25
2022-08-30T07:56:33.760Z,118.12
2022-08-30T07:57:33.707Z,123.75
2022-08-30T07:58:33.699Z,129.38
2022-08-30T07:59:36.100Z,135.00
2022-08-30T08:00:33.680Z,140.62
2022-08-30T08:01:33.752Z,135.00
2022-08-30T08:02:38.711Z,135.00
2022-08-30T08:03:33.640Z,140.62
2022-08-30T08:04:33.628Z,146.25
2022-08-30T08:05:33.618Z,146.25
2022-08-30T08:06:35.101Z,151.88
2022-08-30T08:07:33.594Z,163.12
2022-08-30T08:08:33.587Z,168.75
2022-08-30T08:09:33.580Z,174.38
2022-08-30T08:10:33.574Z,174.38
2022-08-30T08:11:34.042Z,180.00
2022-08-30T08:12:33.551Z,180.00
2022-08-30T08:13:53.178Z,185.62
2022-08-30T08:14:34.527Z,180.00
2022-08-30T08:15:33.544Z,180.00
2022-08-30T08:16:33.498Z,185.62
2022-08-30T08:17:33.499Z,180.00
2022-08-30T08:18:33.477Z,168.75
2022-08-30T08:19:33.463Z,168.75
2022-08-30T08:20:33.478Z,163.12
2022-08-30T08:21:33.442Z,163.12
2022-08-30T08:22:36.809Z,185.62
2022-08-30T08:23:34.419Z,168.75
2022-08-30T08:24:38.437Z,174.38
2022-08-30T08:25:33.397Z,196.88
2022-08-30T08:26:33.411Z,292.50
2022-08-30T08:27:33.388Z,275.62
2022-08-30T08:28:33.373Z,213.75
2022-08-30T08:29:33.354Z,202.50
2022-08-30T08:30:33.345Z,196.88
2022-08-30T08:31:33.999Z,185.62
2022-08-30T08:32:33.342Z,191.25
2022-08-30T08:33:33.310Z,219.38
2022-08-30T08:34:33.299Z,225.00
2022-08-30T08:35:38.314Z,191.25
2022-08-30T08:36:33.279Z,180.00
2022-08-30T08:37:33.286Z,180.00
2022-08-30T08:38:33.253Z,157.50
2022-08-30T08:39:33.240Z,157.50
2022-08-30T08:40:33.296Z,157.50
2022-08-30T08:41:33.218Z,174.38
2022-08-30T08:42:33.221Z,163.12
2022-08-30T08:43:33.197Z,146.25
2022-08-30T08:44:34.806Z,146.25
2022-08-30T08:45:33.183Z,140.62
2022-08-30T08:46:38.247Z,135.00
2022-08-30T08:47:33.165Z,135.00
2022-08-30T08:48:51.997Z,135.00
2022-08-30T08:49:34.131Z,140.62
2022-08-30T08:50:33.124Z,140.62
2022-08-30T08:51:33.113Z,135.00
2022-08-30T08:52:33.116Z,140.62
2022-08-30T08:53:46.116Z,140.62
2022-08-30T08:54:34.076Z,146.25
2022-08-30T08:55:33.074Z,146.25
2022-08-30T08:56:33.058Z,140.62
2022-08-30T08:57:38.065Z,146.25
2022-08-30T08:58:33.054Z,146.25
2022-08-30T08:59:33.022Z,135.00
2022-08-30T09:00:33.010Z,135.00
2022-08-30T09:01:33.046Z,135.00
2022-08-30T09:02:34.425Z,140.62
2022-08-30T09:03:32.989Z,151.88
2022-08-30T09:04:33.028Z,140.62
2022-08-30T09:05:32.963Z,135.00
2022-08-30T09:06:32.949Z,135.00
2022-08-30T09:07:32.935Z,146.25
2022-08-30T09:08:37.954Z,140.62
2022-08-30T09:09:32.909Z,140.62
2022-08-30T09:10:49.346Z,140.62
2022-08-30T09:11:33.887Z,135.00
2022-08-30T09:12:32.879Z,146.25
2022-08-30T09:13:32.877Z,146.25
2022-08-30T09:14:32.984Z,151.88
2022-08-30T09:15:32.950Z,146.25
2022-08-30T09:16:32.866Z,157.50
2022-08-30T09:17:32.824Z,168.75
2022-08-30T09:18:32.822Z,180.00
2022-08-30T09:19:37.823Z,185.62
2022-08-30T09:20:32.792Z,191.25
2022-08-30T09:21:32.779Z,219.38
2022-08-30T09:22:32.771Z,253.12
2022-08-30T09:23:32.773Z,230.62
2022-08-30T09:24:32.749Z,264.38
2022-08-30T09:25:32.738Z,247.50
2022-08-30T09:26:32.738Z,270.00
2022-08-30T09:27:32.716Z,247.50
2022-08-30T09:28:32.711Z,253.12
2022-08-30T09:29:32.716Z,281.25
2022-08-30T09:30:37.769Z,320.62
2022-08-30T09:31:32.697Z,258.75
2022-08-30T09:32:32.657Z,191.25
2022-08-30T09:33:32.665Z,180.00
2022-08-30T09:34:32.646Z,196.88
2022-08-30T09:35:32.626Z,360.00
2022-08-30T09:36:32.614Z,495.00
2022-08-30T09:37:32.607Z,258.75
2022-08-30T09:38:32.604Z,202.50
2022-08-30T09:39:32.589Z,185.62
2022-08-30T09:40:32.632Z,168.75
2022-08-30T09:41:37.587Z,157.50
2022-08-30T09:42:32.551Z,129.38
2022-08-30T09:43:32.548Z,157.50
2022-08-30T09:44:32.526Z,174.38
2022-08-30T09:45:32.517Z,191.25
2022-08-30T09:46:32.549Z,202.50
2022-08-30T09:47:32.494Z,208.12
2022-08-30T09:48:32.493Z,202.50
2022-08-30T09:49:32.472Z,174.38
2022-08-30T09:50:32.464Z,151.88
2022-08-30T09:51:32.451Z,146.25
2022-08-30T09:52:37.460Z,157.50
2022-08-30T09:53:32.442Z,151.88
2022-08-30T09:54:32.416Z,157.50
2022-08-30T09:55:32.407Z,163.12
2022-08-30T09:56:32.394Z,163.12
2022-08-30T09:57:34.136Z,157.50
2022-08-30T09:58:32.371Z,202.50
2022-08-30T09:59:32.373Z,376.88
2022-08-30T10:00:32.350Z,421.88
2022-08-30T10:01:32.370Z,185.62
2022-08-30T10:02:32.331Z,196.88
2022-08-30T10:03:40.564Z,219.38
2022-08-30T10:04:32.306Z,298.12
2022-08-30T10:05:32.302Z,646.88
2022-08-30T10:06:32.283Z,939.38
2022-08-30T10:07:32.291Z,1074.38
2022-08-30T10:08:32.262Z,1175.62
2022-08-30T10:09:32.266Z,511.88
2022-08-30T10:10:32.241Z,388.12
2022-08-30T10:11:32.234Z,573.75
2022-08-30T10:12:32.219Z,371.25
2022-08-30T10:13:33.694Z,180.00
2022-08-30T10:14:37.242Z,202.50
2022-08-30T10:15:32.194Z,326.25
2022-08-30T10:16:32.199Z,371.25
2022-08-30T10:17:33.698Z,393.75
2022-08-30T10:18:32.164Z,292.50
2022-08-30T10:19:32.162Z,163.12
2022-08-30T10:20:32.143Z,163.12
2022-08-30T10:21:32.124Z,174.38
2022-08-30T10:22:32.134Z,185.62
2022-08-30T10:23:32.101Z,202.50
2022-08-30T10:24:33.572Z,225.00
2022-08-30T10:25:37.104Z,208.12
2022-08-30T10:26:32.072Z,208.12
2022-08-30T10:27:32.058Z,208.12
2022-08-30T10:28:32.047Z,213.75
2022-08-30T10:29:32.044Z,225.00
2022-08-30T10:30:32.023Z,264.38
2022-08-30T10:31:32.014Z,405.00
2022-08-30T10:32:32.002Z,568.12
2022-08-30T10:33:32.017Z,388.12
2022-08-30T10:34:31.990Z,264.38
2022-08-30T10:35:38.665Z,315.00
2022-08-30T10:36:37.990Z,309.38
2022-08-30T10:37:31.945Z,736.88
2022-08-30T10:38:31.933Z,1968.75
2022-08-30T10:39:31.935Z,1350.00
2022-08-30T10:40:31.954Z,770.62
2022-08-30T10:41:31.917Z,315.00
2022-08-30T10:42:33.134Z,253.12
2022-08-30T10:43:31.900Z,298.12
2022-08-30T10:44:31.878Z,230.62
2022-08-30T10:45:31.860Z,241.88
2022-08-30T10:46:31.850Z,241.88
2022-08-30T10:47:36.861Z,281.25
2022-08-30T10:48:31.852Z,483.75
2022-08-30T10:49:31.869Z,388.12
2022-08-30T10:50:33.926Z,399.38
2022-08-30T10:51:32.800Z,365.62
2022-08-30T10:52:31.782Z,950.62
2022-08-30T10:53:31.774Z,1029.38
2022-08-30T10:54:31.778Z,433.12
2022-08-30T10:55:31.751Z,298.12
2022-08-30T10:56:31.740Z,461.25
2022-08-30T10:57:31.730Z,540.00
2022-08-30T10:58:31.722Z,292.50
2022-08-30T10:59:31.721Z,281.25
2022-08-30T11:00:36.731Z,326.25
2022-08-30T11:01:31.732Z,281.25
2022-08-30T11:02:31.703Z,337.50
2022-08-30T11:03:31.665Z,236.25
2022-08-30T11:04:31.665Z,230.62
2022-08-30T11:05:31.644Z,241.88
2022-08-30T11:06:31.633Z,241.88
2022-08-30T11:07:31.622Z,236.25
2022-08-30T11:08:31.608Z,264.38
2022-08-30T11:09:31.626Z,236.25
2022-08-30T11:10:31.589Z,241.88
2022-08-30T11:11:31.582Z,253.12
2022-08-30T11:12:31.568Z,275.62
2022-08-30T11:13:36.580Z,270.00
2022-08-30T11:14:31.579Z,258.75
2022-08-30T11:15:31.574Z,247.50
2022-08-30T11:16:31.526Z,230.62
2022-08-30T11:17:31.516Z,219.38
2022-08-30T11:18:31.501Z,213.75
2022-08-30T11:20:34.563Z,202.50
2022-08-30T11:21:31.525Z,196.88
2022-08-30T11:22:34.410Z,191.25
2022-08-30T11:23:32.713Z,196.88
2022-08-30T11:24:31.456Z,202.50
2022-08-30T11:25:31.431Z,219.38
2022-08-30T11:26:36.446Z,219.38
2022-08-30T11:27:31.426Z,230.62
2022-08-30T11:28:31.417Z,191.25
2022-08-30T11:29:31.764Z,219.38
2022-08-30T11:30:31.370Z,253.12
2022-08-30T11:31:31.363Z,281.25
2022-08-30T11:32:31.369Z,360.00
2022-08-30T11:33:31.340Z,343.12
2022-08-30T11:34:31.340Z,270.00
2022-08-30T11:35:31.317Z,731.25
2022-08-30T11:36:37.541Z,1164.38
2022-08-30T11:37:32.303Z,759.38
2022-08-30T11:38:31.287Z,523.12
2022-08-30T11:39:36.330Z,466.88
2022-08-30T11:40:31.316Z,225.00
2022-08-30T11:41:31.277Z,219.38
2022-08-30T11:42:31.266Z,247.50
2022-08-30T11:43:31.231Z,253.12
2022-08-30T11:44:31.220Z,253.12
2022-08-30T11:45:31.381Z,253.12
2022-08-30T11:46:31.280Z,270.00
2022-08-30T11:47:31.190Z,309.38
2022-08-30T11:48:31.183Z,360.00
2022-08-30T11:49:31.170Z,298.12
2022-08-30T11:50:31.163Z,241.88
2022-08-30T11:51:31.145Z,219.38
2022-08-30T11:52:36.166Z,236.25
2022-08-30T11:53:31.144Z,225.00
2022-08-30T11:54:31.147Z,219.38
2022-08-30T11:55:31.125Z,213.75
2022-08-30T11:56:31.089Z,236.25
2022-08-30T11:57:31.079Z,326.25
2022-08-30T11:58:31.067Z,360.00
2022-08-30T11:59:31.064Z,309.38
2022-08-30T12:00:31.330Z,534.38
2022-08-30T12:01:49.686Z,478.12
2022-08-30T12:02:32.096Z,1766.25
2022-08-30T12:03:31.163Z,2688.75
2022-08-30T12:04:31.007Z,2621.25
2022-08-30T12:05:36.042Z,2700.00
2022-08-30T12:06:31.010Z,2936.25
2022-08-30T12:07:31.000Z,2992.50
2022-08-30T12:08:30.976Z,1884.38
2022-08-30T12:09:30.951Z,3043.12
2022-08-30T12:10:30.952Z,2829.38
2022-08-30T12:11:30.941Z,2632.50
2022-08-30T12:12:30.919Z,2385.00
2022-08-30T12:13:30.909Z,2430.00
2022-08-30T12:14:30.896Z,2458.12
2022-08-30T12:15:31.058Z,2300.62
2022-08-30T12:16:30.922Z,2407.50
2022-08-30T12:17:30.872Z,2311.88
2022-08-30T12:18:35.875Z,2553.75
2022-08-30T12:19:30.870Z,2739.38
2022-08-30T12:20:30.868Z,2761.88
2022-08-30T12:21:31.324Z,2548.12
2022-08-30T12:22:31.820Z,2475.00
2022-08-30T12:23:30.817Z,2458.12
2022-08-30T12:24:30.793Z,2407.50
2022-08-30T12:25:30.792Z,2115.00
2022-08-30T12:26:30.770Z,2430.00
2022-08-30T12:27:32.650Z,2542.50
2022-08-30T12:28:30.768Z,2491.88
2022-08-30T12:29:30.741Z,2289.38
2022-08-30T12:30:30.743Z,2345.62
2022-08-30T12:31:35.862Z,2373.75
2022-08-30T12:32:30.711Z,2351.25
2022-08-30T12:33:32.866Z,2441.25
2022-08-30T12:34:31.688Z,2401.88
2022-08-30T12:35:30.687Z,2480.62
2022-08-30T12:36:30.665Z,2621.25
2022-08-30T12:37:30.657Z,2542.50
2022-08-30T12:38:30.646Z,2368.12
2022-08-30T12:39:30.639Z,2458.12
2022-08-30T12:40:30.735Z,2233.12
2022-08-30T12:41:30.618Z,1783.12
2022-08-30T12:42:35.667Z,1653.75
2022-08-30T12:43:39.066Z,1755.00
2022-08-30T12:44:31.585Z,450.00
2022-08-30T12:45:30.696Z,579.38
2022-08-30T12:46:30.571Z,444.38
2022-08-30T12:47:30.572Z,438.75
2022-08-30T12:48:30.548Z,427.50
2022-08-30T12:49:30.551Z,416.25
2022-08-30T12:50:30.527Z,399.38
2022-08-30T12:51:30.530Z,382.50
2022-08-30T12:52:30.513Z,354.38
2022-08-30T12:53:35.541Z,320.62
2022-08-30T12:54:30.514Z,315.00
2022-08-30T12:55:30.479Z,309.38
2022-08-30T12:56:50.064Z,286.88
2022-08-30T12:57:35.152Z,275.62
2022-08-30T12:58:30.446Z,275.62
2022-08-30T12:59:30.434Z,258.75
2022-08-30T13:00:30.421Z,247.50
2022-08-30T13:01:31.297Z,241.88
2022-08-30T13:02:30.424Z,241.88
2022-08-30T13:03:30.669Z,247.50
2022-08-30T13:04:35.404Z,253.12
2022-08-30T13:05:30.393Z,253.12
2022-08-30T13:06:30.424Z,258.75
2022-08-30T13:07:30.361Z,258.75
2022-08-30T13:08:30.364Z,253.12
2022-08-30T13:09:32.397Z,236.25
2022-08-30T13:10:30.337Z,213.75
2022-08-30T13:11:30.329Z,196.88
2022-08-30T13:12:30.382Z,185.62
2022-08-30T13:13:30.297Z,180.00
2022-08-30T13:14:30.280Z,180.00
2022-08-30T13:15:30.266Z,191.25
2022-08-30T13:16:30.297Z,196.88
2022-08-30T13:17:35.264Z,196.88
2022-08-30T13:18:30.257Z,202.50
2022-08-30T13:19:30.245Z,208.12
2022-08-30T13:20:30.210Z,208.12
2022-08-30T13:21:30.208Z,213.75
2022-08-30T13:22:30.209Z,196.88
2022-08-30T13:23:30.179Z,191.25
2022-08-30T13:24:30.168Z,191.25
2022-08-30T13:25:30.157Z,180.00
2022-08-30T13:26:30.154Z,174.38
2022-08-30T13:27:30.138Z,168.75
2022-08-30T13:28:30.125Z,168.75
2022-08-30T13:29:30.117Z,174.38
2022-08-30T13:30:35.169Z,174.38
2022-08-30T13:31:30.212Z,168.75
2022-08-30T13:32:30.106Z,174.38
2022-08-30T13:33:30.071Z,168.75
2022-08-30T13:34:30.059Z,168.75
2022-08-30T13:35:30.050Z,174.38
2022-08-30T13:36:30.052Z,174.38
2022-08-30T13:37:49.798Z,180.00
2022-08-30T13:38:31.033Z,185.62
2022-08-30T13:39:30.011Z,191.25
2022-08-30T13:40:30.058Z,196.88
2022-08-30T13:41:33.739Z,196.88
2022-08-30T13:42:33.171Z,196.88
2022-08-30T13:44:09.459Z,196.88
2022-08-30T13:44:30.974Z,202.50
2022-08-30T13:45:45.461Z,191.25
2022-08-30T13:46:31.008Z,180.00
2022-08-30T13:47:34.459Z,185.62
2022-08-30T13:48:30.917Z,185.62
2022-08-30T13:49:45.647Z,180.00
2022-08-30T13:50:30.888Z,185.62
2022-08-30T13:51:29.885Z,180.00
2022-08-30T13:52:29.868Z,180.00
2022-08-30T13:53:58.544Z,191.25
2022-08-30T13:54:30.847Z,202.50
2022-08-30T13:55:29.835Z,196.88
2022-08-30T13:56:34.861Z,208.12
2022-08-30T13:58:30.825Z,202.50
2022-08-30T13:59:29.790Z,208.12
2022-08-30T14:00:33.490Z,208.12
2022-08-30T14:01:31.192Z,208.12
2022-08-30T14:02:31.790Z,196.88
2022-08-30T14:03:29.780Z,185.62
2022-08-30T14:04:29.821Z,157.50
2022-08-30T14:06:34.081Z,151.88
2022-08-30T14:07:29.705Z,123.75
2022-08-30T14:08:47.751Z,112.50
2022-08-30T14:09:35.738Z,101.25
2022-08-30T14:10:31.390Z,106.88
2022-08-30T14:11:29.696Z,101.25
2022-08-30T14:13:30.644Z,112.50
2022-08-30T14:14:42.885Z,123.75
2022-08-30T14:15:30.617Z,129.38
2022-08-30T14:16:29.781Z,135.00
2022-08-30T14:17:29.685Z,129.38
2022-08-30T14:18:29.590Z,129.38
2022-08-30T14:19:29.578Z,129.38
2022-08-30T14:20:29.571Z,123.75
2022-08-30T14:21:29.562Z,123.75
2022-08-30T14:22:34.573Z,123.75
2022-08-30T14:23:29.557Z,123.75
2022-08-30T14:24:29.547Z,123.75
2022-08-30T14:25:29.512Z,123.75
2022-08-30T14:26:33.169Z,123.75
2022-08-30T14:27:29.490Z,123.75
2022-08-30T14:28:29.484Z,123.75
2022-08-30T14:29:29.480Z,123.75
2022-08-30T14:30:29.460Z,123.75
2022-08-30T14:31:29.507Z,123.75
2022-08-30T14:32:29.445Z,118.12
2022-08-30T14:33:29.425Z,118.12
2022-08-30T14:34:29.416Z,118.12
2022-08-30T14:35:34.425Z,112.50
2022-08-30T14:36:29.434Z,112.50
2022-08-30T14:37:29.406Z,106.88
2022-08-30T14:38:29.372Z,112.50
2022-08-30T14:39:29.366Z,106.88
2022-08-30T14:40:29.413Z,106.88
2022-08-30T14:41:29.352Z,112.50
2022-08-30T14:42:29.361Z,135.00
2022-08-30T14:43:29.320Z,151.88
2022-08-30T14:44:41.255Z,146.25
2022-08-30T14:45:30.295Z,146.25
2022-08-30T14:46:29.353Z,140.62
2022-08-30T14:47:29.802Z,140.62
2022-08-30T14:48:34.291Z,140.62
2022-08-30T14:49:29.278Z,140.62
2022-08-30T14:50:29.271Z,146.25
2022-08-30T14:51:29.232Z,135.00
2022-08-30T14:52:29.238Z,123.75
2022-08-30T14:53:29.211Z,118.12
2022-08-30T14:54:29.202Z,112.50
2022-08-30T14:55:29.189Z,112.50
2022-08-30T14:56:29.183Z,106.88
2022-08-30T14:57:29.190Z,101.25
2022-08-30T14:58:29.176Z,101.25
2022-08-30T14:59:29.146Z,101.25
2022-08-30T15:00:29.161Z,106.88
2022-08-30T15:01:37.008Z,106.88
2022-08-30T15:02:29.149Z,106.88
2022-08-30T15:03:29.127Z,106.88
2022-08-30T15:04:29.157Z,106.88
2022-08-30T15:05:29.087Z,106.88
2022-08-30T15:06:29.072Z,112.50
2022-08-30T15:07:29.076Z,118.12
2022-08-30T15:08:29.051Z,123.75
2022-08-30T15:09:29.039Z,118.12
2022-08-30T15:10:29.029Z,112.50
2022-08-30T15:11:29.619Z,106.88
2022-08-30T15:12:29.019Z,106.88
2022-08-30T15:13:29.000Z,106.88
2022-08-30T15:14:34.008Z,101.25
2022-08-30T15:15:29.012Z,95.62
2022-08-30T15:16:29.053Z,95.62
2022-08-30T15:17:28.978Z,95.62
2022-08-30T15:18:28.944Z,95.62
2022-08-30T15:19:29.064Z,90.00
2022-08-30T15:20:28.922Z,95.62
2022-08-30T15:21:28.910Z,95.62
2022-08-30T15:22:28.912Z,90.00
2022-08-30T15:23:28.888Z,95.62
2022-08-30T15:24:29.905Z,90.00
2022-08-30T15:25:28.867Z,61.88
2022-08-30T15:26:28.858Z,67.50
2022-08-30T15:27:33.881Z,73.12
2022-08-30T15:28:28.871Z,73.12
2022-08-30T15:29:30.581Z,61.88
2022-08-30T15:30:28.814Z,73.12
2022-08-30T15:31:28.895Z,73.12
2022-08-30T15:32:28.803Z,73.12
2022-08-30T15:33:28.780Z,78.75
2022-08-30T15:34:28.772Z,78.75
2022-08-30T15:35:28.759Z,67.50
2022-08-30T15:36:28.757Z,56.25
2022-08-30T15:37:28.747Z,50.62
2022-08-30T15:38:28.729Z,50.62
2022-08-30T15:39:29.602Z,50.62
2022-08-30T15:40:33.763Z,61.88
2022-08-30T15:41:28.719Z,67.50
2022-08-30T15:42:28.728Z,73.12
2022-08-30T15:43:28.673Z,56.25
2022-08-30T15:44:28.665Z,56.25
2022-08-30T15:45:28.654Z,56.25
2022-08-30T15:46:29.783Z,56.25
2022-08-30T15:47:28.645Z,56.25
2022-08-30T15:48:28.626Z,56.25
2022-08-30T15:49:28.609Z,61.88
2022-08-30T15:50:28.601Z,61.88
2022-08-30T15:51:28.587Z,61.88
2022-08-30T15:52:28.590Z,61.88
2022-08-30T15:53:33.587Z,61.88
2022-08-30T15:54:28.558Z,61.88
2022-08-30T15:55:28.544Z,61.88
2022-08-30T15:56:28.535Z,61.88
2022-08-30T15:57:28.532Z,61.88
2022-08-30T15:58:28.525Z,61.88
2022-08-30T15:59:28.513Z,61.88
2022-08-30T16:00:28.518Z,56.25
2022-08-30T16:01:30.586Z,56.25
2022-08-30T16:02:28.493Z,56.25
2022-08-30T16:03:28.467Z,50.62
2022-08-30T16:04:33.470Z,50.62
2022-08-30T16:05:28.436Z,50.62
2022-08-30T16:06:28.431Z,50.62
2022-08-30T16:07:28.414Z,61.88
2022-08-30T16:08:28.417Z,61.88
2022-08-30T16:09:29.867Z,61.88
2022-08-30T16:10:29.623Z,61.88
2022-08-30T16:11:28.374Z,61.88
2022-08-30T16:12:28.363Z,61.88
2022-08-30T16:13:28.361Z,67.50
2022-08-30T16:14:28.340Z,67.50
2022-08-30T16:15:33.350Z,67.50
2022-08-30T16:16:28.383Z,73.12
2022-08-30T16:17:28.309Z,67.50
2022-08-30T16:18:28.306Z,67.50
2022-08-30T16:19:28.284Z,61.88
2022-08-30T16:20:28.279Z,67.50
2022-08-30T16:21:28.268Z,67.50
2022-08-30T16:22:28.255Z,67.50
2022-08-30T16:23:28.255Z,67.50
2022-08-30T16:24:29.231Z,61.88
2022-08-30T16:25:40.045Z,50.62
2022-08-30T16:26:34.241Z,61.88
2022-08-30T16:27:28.214Z,67.50
2022-08-30T16:28:28.197Z,67.50
2022-08-30T16:29:28.340Z,61.88
2022-08-30T16:30:28.180Z,56.25
2022-08-30T16:31:28.219Z,56.25
2022-08-30T16:32:28.149Z,56.25
2022-08-30T16:33:28.160Z,45.00
2022-08-30T16:34:28.130Z,45.00
2022-08-30T16:35:28.123Z,45.00
2022-08-30T16:36:28.114Z,45.00
2022-08-30T16:37:33.113Z,45.00
2022-08-30T16:38:28.094Z,45.00
2022-08-30T16:39:28.068Z,45.00
2022-08-30T16:40:28.097Z,45.00
2022-08-30T16:41:28.050Z,45.00
2022-08-30T16:42:28.045Z,50.62